Bei Facebook empfehlenBei Twitter postenGoogle plusPinterest

Das Wetter im Erzgebirge am 23.02.2017

Wetter und Klima am 23.02.2017 Holzhau im Erzgebirge (630m ü.NN)
Letzte gemessene Temperatur und Uhrzeit der Messung23:45:00 Uhr4.60 °C
Temperatur (Maximum / Höchstwert) und Uhrzeit der Messung19:30:00 Uhr8.40 °C
Temperatur (Minimum / Tiefstwert) und Uhrzeit der Messung00:00:002.40 °C
Errechneter Absolutwert der Temperaturschwankungen zwischen Tmin und Tmax des Tages6.00 K
Errechnete Tagesmitteltemperatur5.82500 °C
Gesamt - Niederschlag des Tages (in flüssiger Form)5.70 Liter / m²
Luftdruck (Maximum / Höchstwert) und Zeitpunkt der Messung01:45:00 Uhr1001.30 hPa
Luftdruck (Minimum / Tiefstwert) und Zeitpunkt der Messung21:00:00 Uhr990.00 hPa
Errechneter Absolutwert der Luftdruckschwankungen des Tages11.30 hPa
Höchste gemessene Windgeschwindigkeit und Uhrzeit der Messung21:45:00 Uhr22.32 km/h
Errechnete Windhäufigkeit in Relation zu den Messwerten des Tages71.87500 %
Niedrigste Windkühle (Windchill) und Zeitpunkt der Messung00:30:00 Uhr0.90 °C
Taupunkt (Maximum / Höchstwert) und Uhrzeit der Messung12:00:00 Uhr5.10 °C
Taupunkt (Minimum / Tiefstwert) und Uhrzeit der Messung23:45:00-0.40 °C
Anzahl der automatisch eingelesenen Messwerte 96

Detaillierte Wetter- und Klima- Messwerte für den 23.02.2017 in Holzhau im Erzgebirge (630m ü.NN)
ZeitTemperaturLuftdruckRel. LuftfeuchteWindWindrichtungWindchillTaupunktNiederschlag l/m²
23:45:004.60 °C990.40 hPa70.00 %11.16 km/hW1.90 °C-0.40 °C5.70
23:30:004.90 °C990.50 hPa69.00 %6.84 km/hNW3.30 °C-0.30 °C5.70
23:15:005.40 °C990.40 hPa66.00 %18.36 km/hW1.80 °C-0.40 °C5.70
23:00:005.80 °C990.50 hPa68.00 %10.80 km/hWSW3.50 °C0.40 °C5.70
22:45:006.10 °C990.20 hPa68.00 %11.52 km/hW3.70 °C0.60 °C5.70
22:30:006.60 °C990.30 hPa66.00 %21.96 km/hW2.90 °C0.70 °C5.70
22:15:006.60 °C990.40 hPa70.00 %6.48 km/hSW5.40 °C1.50 °C5.70
22:00:006.50 °C990.20 hPa71.00 %8.64 km/hSW4.70 °C1.60 °C5.70
21:45:006.60 °C990.10 hPa73.00 %22.32 km/hWSW2.80 °C2.10 °C5.70
21:30:006.90 °C990.40 hPa73.00 %13.32 km/hW4.30 °C2.40 °C5.70
21:15:007.30 °C990.50 hPa73.00 %15.12 km/hWNW4.60 °C2.80 °C5.70
21:00:007.40 °C990.00 hPa73.00 %4.68 km/hSW7.40 °C2.90 °C5.70
20:45:007.30 °C990.00 hPa73.00 %17.64 km/hWSW4.20 °C2.80 °C5.70
20:30:007.40 °C990.30 hPa74.00 %13.32 km/hSSW5.00 °C3.10 °C5.70
20:15:007.50 °C990.50 hPa74.00 %10.44 km/hWSW5.60 °C3.20 °C5.70
20:00:007.60 °C990.80 hPa74.00 %11.52 km/hSSW5.50 °C3.30 °C5.70
19:45:008.30 °C990.80 hPa70.00 %5.04 km/hWSW7.80 °C3.20 °C5.70
19:30:008.40 °C990.70 hPa67.00 %7.20 km/hSW7.30 °C2.60 °C5.70
19:15:008.30 °C990.80 hPa66.00 %17.28 km/hWSW5.50 °C2.30 °C5.70
19:00:008.10 °C990.70 hPa67.00 %11.88 km/hWNW6.00 °C2.40 °C5.70
18:45:008.00 °C990.70 hPa68.00 %11.52 km/hW6.00 °C2.50 °C5.70
18:30:007.90 °C991.10 hPa68.00 %14.40 km/hSSW5.40 °C2.40 °C5.70
18:15:007.90 °C991.50 hPa68.00 %5.04 km/hWSW7.40 °C2.40 °C5.70
18:00:007.90 °C991.50 hPa69.00 %11.88 km/hW5.80 °C2.60 °C5.70
17:45:008.10 °C991.60 hPa68.00 %7.56 km/hNO6.90 °C2.60 °C5.70
17:30:008.10 °C991.70 hPa69.00 %7.20 km/hS7.00 °C2.80 °C5.70
17:15:007.90 °C991.60 hPa71.00 %5.04 km/hWNW7.40 °C3.00 °C5.70
17:00:007.60 °C992.10 hPa73.00 %5.40 km/hSSO6.90 °C3.10 °C5.70
16:45:007.60 °C992.30 hPa76.00 %5.76 km/hSSW6.80 °C3.60 °C5.70
16:30:007.40 °C992.50 hPa76.00 %3.50 °C5.70
16:15:007.40 °C992.60 hPa77.00 %2.52 km/hSW7.40 °C3.60 °C5.70
16:00:007.40 °C992.90 hPa78.00 %12.96 km/hSSW5.00 °C3.80 °C5.70
15:45:006.90 °C993.40 hPa82.00 %10.80 km/hSW4.80 °C4.00 °C5.70
15:30:006.80 °C993.80 hPa84.00 %6.48 km/hOSO5.60 °C4.30 °C5.70
15:15:007.10 °C994.10 hPa84.00 %4.60 °C5.70
15:00:007.30 °C994.50 hPa83.00 %4.60 °C5.70
14:45:007.30 °C994.90 hPa83.00 %4.60 °C5.70
14:30:007.30 °C995.20 hPa85.00 %3.24 km/hSSW7.30 °C5.00 °C5.70
14:15:007.00 °C995.60 hPa87.00 %5.00 °C5.70
14:00:006.40 °C996.10 hPa88.00 %6.12 km/hSW5.30 °C4.60 °C5.70
13:45:006.20 °C996.60 hPa89.00 %4.50 °C5.70
13:30:006.30 °C997.00 hPa88.00 %2.52 km/hW6.30 °C4.50 °C5.70
13:15:006.60 °C997.30 hPa88.00 %5.76 km/hWNW5.60 °C4.80 °C5.70
13:00:006.70 °C997.10 hPa89.00 %5.00 °C5.70
12:45:006.40 °C997.70 hPa89.00 %4.70 °C5.70
12:30:006.40 °C998.10 hPa88.00 %4.60 °C5.70
12:15:006.60 °C998.20 hPa88.00 %4.80 °C5.70
12:00:006.80 °C998.70 hPa89.00 %5.10 °C5.70
11:45:006.40 °C998.70 hPa90.00 %3.96 km/hSSW6.40 °C4.90 °C5.70
11:30:006.10 °C998.80 hPa90.00 %2.52 km/hW6.10 °C4.60 °C5.70
11:15:005.90 °C998.90 hPa90.00 %7.92 km/hSSW4.20 °C4.40 °C5.70
11:00:005.90 °C999.00 hPa90.00 %3.60 km/hWSW5.90 °C4.40 °C5.70
10:45:006.10 °C999.20 hPa90.00 %7.20 km/hWSW4.60 °C4.60 °C5.70
10:30:006.10 °C999.20 hPa90.00 %7.92 km/hSW4.40 °C4.60 °C5.70
10:15:006.10 °C999.30 hPa90.00 %1.08 km/hW6.10 °C4.60 °C5.70
10:00:005.90 °C999.60 hPa90.00 %8.28 km/hW4.10 °C4.40 °C5.70
09:45:005.90 °C999.70 hPa91.00 %14.04 km/hSW3.00 °C4.50 °C5.70
09:30:005.90 °C999.90 hPa91.00 %5.40 km/hSW5.00 °C4.50 °C5.70
09:15:005.90 °C999.80 hPa91.00 %19.44 km/hNNW2.30 °C4.50 °C5.70
09:00:005.90 °C999.90 hPa92.00 %9.72 km/hNNW3.80 °C4.70 °C5.70
08:45:005.80 °C1000.00 hPa92.00 %4.60 °C5.70
08:30:005.80 °C1000.00 hPa93.00 %7.20 km/hWNW4.30 °C4.80 °C5.70
08:15:005.60 °C1000.10 hPa94.00 %4.32 km/hWSW5.60 °C4.70 °C5.70
08:00:005.50 °C1000.30 hPa95.00 %6.48 km/hW4.10 °C4.80 °C5.70
07:45:005.30 °C1000.30 hPa95.00 %17.64 km/hWNW1.70 °C4.60 °C5.70
07:30:005.20 °C1000.30 hPa95.00 %16.20 km/hW1.80 °C4.50 °C5.70
07:15:005.10 °C1000.40 hPa96.00 %14.40 km/hWNW2.00 °C4.50 °C5.70
07:00:005.00 °C1000.60 hPa96.00 %5.40 km/hW3.90 °C4.40 °C5.70
06:45:004.90 °C1000.60 hPa96.00 %4.30 °C5.70
06:30:004.90 °C1000.60 hPa96.00 %1.44 km/hWSW4.90 °C4.30 °C5.70
06:15:004.90 °C1000.90 hPa96.00 %4.30 °C5.18
06:00:004.90 °C1000.70 hPa96.00 %4.30 °C5.18
05:45:004.90 °C1000.70 hPa96.00 %0.72 km/hW4.90 °C4.30 °C4.66
05:30:004.90 °C1000.70 hPa96.00 %6.12 km/hW3.60 °C4.30 °C4.66
05:15:004.80 °C1000.60 hPa96.00 %4.20 °C4.66
05:00:004.20 °C1000.70 hPa95.00 %7.92 km/hW2.20 °C3.50 °C4.66
04:45:003.60 °C1000.70 hPa95.00 %2.90 °C4.66
04:30:003.50 °C1000.70 hPa95.00 %2.80 °C4.14
04:15:003.50 °C1000.80 hPa95.00 %2.80 °C4.14
04:00:003.60 °C1000.80 hPa95.00 %2.90 °C3.63
03:45:003.60 °C1001.00 hPa95.00 %2.90 °C3.63
03:30:003.60 °C1000.70 hPa95.00 %2.90 °C3.63
03:15:003.60 °C1000.80 hPa95.00 %0.72 km/hW3.60 °C2.90 °C3.63
03:00:003.60 °C1000.70 hPa95.00 %2.90 °C3.63
02:45:003.60 °C1000.80 hPa95.00 %2.90 °C3.11
02:30:003.60 °C1001.00 hPa95.00 %4.32 km/hW3.60 °C2.90 °C3.11
02:15:003.50 °C1001.20 hPa95.00 %2.16 km/hNW3.50 °C2.80 °C3.11
02:00:003.40 °C1001.20 hPa95.00 %5.40 km/hWNW2.10 °C2.70 °C2.59
01:45:003.40 °C1001.30 hPa95.00 %5.40 km/hNW2.10 °C2.70 °C2.59
01:30:003.30 °C1000.90 hPa95.00 %8.28 km/hWSW1.10 °C2.60 °C2.59
01:15:003.30 °C1001.30 hPa95.00 %2.60 °C2.07
01:00:003.10 °C1001.20 hPa95.00 %2.40 °C2.07
00:45:002.90 °C1001.10 hPa95.00 %1.44 km/hW2.90 °C2.20 °C1.55
00:30:002.80 °C1001.10 hPa95.00 %6.84 km/hW0.90 °C2.10 °C1.04
00:15:002.60 °C1000.90 hPa94.00 %3.96 km/hW2.60 °C1.70 °C0.52
00:00:002.40 °C1001.30 hPa94.00 %1.50 °C 

Permanenter Link zu dieser Seite: Wetter im Erzgebirge am 23.02.2017
Performance-Info: Die Erstellung der Seite / Statistik(en) / Tabelle(n) erforderte 5 Datenbankserver-Abfrage(n) und dauerte 97 Millisekunden. (Dieser Messwert ist von der Gesamt-Auslastung des Servers abhängig.)
Erzgebirge - Wetter | Erzgebirge - Wetter (Mobilgeräte) | Komplette Klimadatenbank